Time;durP1;ratioP1;P1;durP2;ratioP2;P2;SDS_P1;SDS_P2;PMS_P1;PMS_P2;Temp;Humidity;BMP_temperature;BMP_pressure;BME280_temperature;BME280_humidity;BME280_pressure;Samples;Min_cycle;Max_cycle;Signal;HPM_P1;HPM_P2
2023/09/20 00:02:12;;;;;;;0.67;0.67;;;18.50;99.90;;;19.06;70.56;100427.94;4923385;29;20646;-66
2023/09/20 00:04:41;;;;;;;0.70;0.70;;;18.60;99.90;;;19.09;70.52;100421.50;4895458;29;21056;-65
2023/09/20 00:07:09;;;;;;;0.60;0.60;;;18.50;99.90;;;19.06;70.88;100419.22;4909171;29;20638;-65
2023/09/20 00:09:36;;;;;;;0.90;0.90;;;18.60;99.90;;;19.04;70.78;100422.00;4915444;29;20630;-66
2023/09/20 00:12:03;;;;;;;0.60;0.60;;;18.50;99.90;;;19.06;70.60;100417.38;4912463;29;20649;-72
2023/09/20 00:14:30;;;;;;;0.70;0.70;;;18.50;99.90;;;19.06;70.45;100417.38;4913437;29;20650;-68
2023/09/20 00:16:57;;;;;;;0.80;0.73;;;18.50;99.90;;;19.04;70.93;100415.88;4912816;29;20641;-67
2023/09/20 00:19:24;;;;;;;0.63;0.63;;;18.60;99.90;;;19.04;70.60;100415.88;4913184;29;21109;-65
2023/09/20 00:21:51;;;;;;;0.57;0.57;;;18.50;99.90;;;19.04;71.05;100418.53;4914723;29;21040;-67
2023/09/20 00:24:18;;;;;;;0.60;0.60;;;18.60;99.90;;;19.03;71.00;100409.81;4913810;29;20744;-66
2023/09/20 00:26:45;;;;;;;0.60;0.60;;;18.50;99.90;;;19.05;71.03;100401.69;4914575;29;20629;-68
2023/09/20 00:29:12;;;;;;;0.60;0.60;;;18.60;99.90;;;19.04;71.21;100400.03;4913369;29;20653;-66
2023/09/20 00:31:39;;;;;;;0.60;0.60;;;18.50;99.90;;;19.05;71.42;100399.03;4914227;29;20626;-65
2023/09/20 00:34:06;;;;;;;0.67;0.67;;;18.60;99.90;;;19.04;71.44;100381.50;4913099;29;20688;-66
2023/09/20 00:36:33;;;;;;;0.60;0.60;;;18.50;99.90;;;19.05;71.72;100385.81;4914446;29;20633;-65
2023/09/20 00:39:01;;;;;;;1.07;0.97;;;18.50;99.90;;;19.02;72.25;100380.88;4913788;29;20761;-66
2023/09/20 00:41:28;;;;;;;0.60;0.60;;;18.50;99.90;;;18.98;72.74;100379.56;4913588;29;20744;-67
2023/09/20 00:43:55;;;;;;;1.00;0.83;;;18.50;99.90;;;18.96;72.87;100385.03;4914213;29;20721;-69
2023/09/20 00:46:24;;;;;;;0.60;0.60;;;18.40;99.90;;;18.95;73.01;100390.50;4912720;29;21234;-66
2023/09/20 00:48:53;;;;;;;0.80;0.80;;;18.40;99.90;;;18.94;73.10;100380.91;4913460;29;20645;-66
2023/09/20 00:51:21;;;;;;;0.60;0.60;;;18.40;99.90;;;18.95;73.40;100391.28;4912704;29;20626;-66
2023/09/20 00:53:52;;;;;;;1.20;0.80;;;18.40;99.90;;;18.91;73.60;100384.69;4912855;29;21039;-65
2023/09/20 00:56:21;;;;;;;0.90;0.90;;;18.40;99.90;;;18.95;73.81;100387.84;4912964;29;20662;-69
2023/09/20 00:58:50;;;;;;;0.90;0.90;;;18.40;99.90;;;18.94;73.86;100386.19;4910947;29;21481;-67
2023/09/20 01:01:18;;;;;;;1.87;1.00;;;18.40;99.90;;;18.91;74.31;100384.69;4927927;29;21239;-69
2023/09/20 01:03:47;;;;;;;0.80;0.80;;;18.40;99.90;;;18.89;74.71;100388.53;4911846;29;20638;-66
2023/09/20 01:06:17;;;;;;;2.60;1.10;;;18.40;99.90;;;18.83;75.34;100391.81;4910635;29;21079;-66
2023/09/20 01:08:46;;;;;;;0.83;0.83;;;18.30;99.90;;;18.80;75.67;100389.53;4912716;29;20688;-67
2023/09/20 01:11:15;;;;;;;0.80;0.80;;;18.30;99.90;;;18.78;76.02;100394.16;4912239;29;20646;-65
2023/09/20 01:13:44;;;;;;;0.90;0.90;;;18.20;99.90;;;18.81;76.05;100385.88;4913880;29;20651;-66
2023/09/20 01:16:14;;;;;;;0.90;0.90;;;18.30;99.90;;;18.76;76.60;100382.94;4912790;29;20656;-64
2023/09/20 01:18:44;;;;;;;0.90;0.90;;;18.30;99.90;;;18.78;76.48;100387.06;4906245;29;20671;-67
2023/09/20 01:21:12;;;;;;;0.80;0.80;;;18.20;99.90;;;18.77;76.65;100388.03;4910239;29;20637;-66
2023/09/20 01:23:42;;;;;;;0.83;0.83;;;18.20;99.90;;;18.79;76.94;100383.41;4912012;29;21337;-67
2023/09/20 01:26:13;;;;;;;1.33;1.23;;;18.30;99.90;;;18.77;77.25;100385.41;4911698;29;20662;-65
2023/09/20 01:28:41;;;;;;;0.83;0.83;;;18.30;99.90;;;18.72;77.67;100379.78;4911294;29;20630;-64
2023/09/20 01:31:08;;;;;;;0.90;0.90;;;18.20;99.90;;;18.68;77.89;100377.66;4913186;29;20626;-66
2023/09/20 01:33:37;;;;;;;0.80;0.80;;;18.20;99.90;;;18.60;78.28;100375.84;4910964;29;20791;-64
2023/09/20 01:36:04;;;;;;;1.37;1.00;;;18.10;99.90;;;18.53;78.59;100367.78;4913313;29;20863;-66
2023/09/20 01:38:32;;;;;;;0.90;0.90;;;18.10;99.90;;;18.50;78.80;100367.28;4911309;29;20682;-65
2023/09/20 01:40:59;;;;;;;1.00;1.00;;;18.00;99.90;;;18.47;79.27;100373.72;4913621;29;20637;-65
2023/09/20 01:43:26;;;;;;;0.90;0.90;;;18.00;99.90;;;18.45;79.24;100374.88;4911431;29;20640;-63
2023/09/20 01:45:53;;;;;;;0.87;0.87;;;17.90;99.90;;;18.43;79.28;100372.38;4906092;29;21042;-66
2023/09/20 01:48:21;;;;;;;0.80;0.80;;;18.00;99.90;;;18.44;79.40;100383.81;4913754;29;20725;-65
2023/09/20 01:50:50;;;;;;;0.73;0.73;;;17.90;99.90;;;18.39;79.36;100386.91;4908410;29;20682;-65
2023/09/20 01:53:17;;;;;;;1.00;1.00;;;17.90;99.90;;;18.38;79.15;100379.97;4923568;29;20638;-67
2023/09/20 01:55:44;;;;;;;0.67;0.67;;;17.90;99.90;;;18.34;79.39;100373.38;4911796;29;20661;-65
2023/09/20 01:58:14;;;;;;;0.80;0.80;;;17.90;99.90;;;18.29;79.49;100374.88;4913003;29;20665;-68
2023/09/20 02:00:42;;;;;;;0.80;0.80;;;17.80;99.90;;;18.25;80.00;100373.56;4910685;29;20670;-67
2023/09/20 02:03:16;;;;;;;0.77;0.77;;;17.80;99.90;;;18.23;79.72;100381.63;4914393;29;20642;-67
2023/09/20 02:05:46;;;;;;;0.80;0.70;;;17.80;99.90;;;18.18;79.92;100376.03;4910167;29;20649;-66
2023/09/20 02:08:13;;;;;;;2.10;1.00;;;17.70;99.90;;;18.16;80.19;100371.91;4916687;29;20645;-69
2023/09/20 02:10:41;;;;;;;0.80;0.80;;;17.70;99.90;;;18.13;80.03;100377.50;4916685;29;20630;-67
2023/09/20 02:13:08;;;;;;;0.90;0.90;;;17.70;99.90;;;18.11;80.34;100372.41;4914746;29;20677;-65
2023/09/20 02:15:36;;;;;;;0.60;0.60;;;17.70;99.90;;;18.09;80.30;100369.09;4915895;29;20673;-68
2023/09/20 02:18:09;;;;;;;0.80;0.80;;;17.60;99.90;;;18.09;80.01;100363.81;4916591;29;20772;-66
2023/09/20 02:20:37;;;;;;;0.73;0.73;;;17.60;99.90;;;18.07;80.30;100368.44;4915509;29;20681;-65
2023/09/20 02:23:12;;;;;;;1.40;1.30;;;17.60;99.90;;;18.04;80.18;100371.38;4909998;29;20653;-67
2023/09/20 02:25:40;;;;;;;1.00;1.00;;;17.60;99.90;;;18.07;80.01;100365.78;4915524;29;20709;-66
2023/09/20 02:28:08;;;;;;;0.80;0.80;;;17.60;99.90;;;18.05;80.14;100365.13;4916220;29;20652;-66
2023/09/20 02:30:36;;;;;;;0.70;0.70;;;17.60;99.90;;;18.05;80.15;100367.78;4916550;29;20637;-69
2023/09/20 02:33:06;;;;;;;0.80;0.80;;;17.60;99.90;;;18.07;80.14;100365.78;4909742;29;20653;-67
2023/09/20 02:35:36;;;;;;;0.87;0.87;;;17.60;99.90;;;18.05;80.36;100366.94;4914700;29;20764;-67
2023/09/20 02:38:05;;;;;;;1.57;0.90;;;17.60;99.90;;;18.05;80.05;100365.13;4929186;29;20715;-67
2023/09/20 02:40:34;;;;;;;0.70;0.70;;;17.60;99.90;;;18.04;80.09;100366.09;4915490;29;20669;-65
2023/09/20 02:43:09;;;;;;;1.10;1.00;;;17.60;99.90;;;18.06;80.00;100358.03;4914686;29;20669;-66
2023/09/20 02:45:39;;;;;;;0.77;0.77;;;17.60;99.90;;;18.09;79.90;100363.81;4915688;29;20698;-66
2023/09/20 02:48:08;;;;;;;1.07;1.00;;;17.60;99.90;;;18.12;79.62;100354.75;4913137;29;20650;-65
2023/09/20 02:50:35;;;;;;;1.00;1.00;;;17.60;99.90;;;18.15;79.42;100355.22;4913612;29;20692;-67
2023/09/20 02:53:04;;;;;;;0.87;0.73;;;17.60;99.90;;;18.20;78.89;100357.38;4915705;29;20629;-66
2023/09/20 02:55:32;;;;;;;0.67;0.67;;;17.70;99.90;;;18.21;79.12;100351.91;4914647;29;20757;-69
2023/09/20 02:57:59;;;;;;;0.73;0.73;;;17.70;99.90;;;18.24;78.71;100356.06;4914042;29;20687;-67
2023/09/20 03:00:30;;;;;;;1.60;1.37;;;17.70;99.90;;;18.22;78.68;100358.88;4913292;29;21283;-66
2023/09/20 03:03:02;;;;;;;0.70;0.70;;;17.70;99.90;;;18.19;78.77;100351.25;4926847;29;21211;-66
2023/09/20 03:05:33;;;;;;;0.97;0.97;;;17.70;99.90;;;18.16;78.49;100356.91;4914164;29;20649;-67
2023/09/20 03:08:01;;;;;;;0.87;0.87;;;17.70;99.90;;;18.19;78.55;100356.53;4915193;29;20669;-66
2023/09/20 03:10:29;;;;;;;0.73;0.73;;;17.70;99.90;;;18.21;78.13;100354.56;4913674;29;20641;-65
2023/09/20 03:13:00;;;;;;;2.73;0.90;;;17.70;99.90;;;18.25;78.01;100353.22;4915093;29;20721;-69
2023/09/20 03:15:28;;;;;;;0.80;0.80;;;17.80;99.90;;;18.23;77.78;100351.78;4912404;29;20655;-65
2023/09/20 03:18:00;;;;;;;0.93;0.93;;;17.70;99.90;;;18.21;77.75;100338.72;4915342;29;20708;-66
2023/09/20 03:20:32;;;;;;;0.93;0.83;;;17.70;99.90;;;18.20;77.89;100342.38;4915439;29;20658;-68
2023/09/20 03:23:05;;;;;;;0.83;0.83;;;17.70;99.90;;;18.17;77.75;100329.47;4913039;29;20634;-66
2023/09/20 03:25:36;;;;;;;0.67;0.67;;;17.70;99.90;;;18.15;77.43;100335.91;4915420;29;20653;-67
2023/09/20 03:28:07;;;;;;;0.80;0.80;;;17.70;99.90;;;18.11;77.58;100329.31;4928344;29;20693;-66
2023/09/20 03:30:37;;;;;;;0.80;0.80;;;17.70;99.90;;;18.09;77.41;100326.84;4915867;29;20634;-67
2023/09/20 03:33:05;;;;;;;0.60;0.60;;;17.60;99.90;;;18.03;77.76;100322.22;4928108;29;20781;-68
2023/09/20 03:35:34;;;;;;;1.07;1.07;;;17.60;99.90;;;17.99;78.06;100325.38;4915659;29;20744;-67
2023/09/20 03:38:01;;;;;;;1.20;1.10;;;17.50;99.90;;;17.94;78.17;100311.81;4929603;29;20725;-65
2023/09/20 03:40:29;;;;;;;0.80;0.80;;;17.50;99.90;;;17.98;78.00;100311.34;4913871;29;21090;-68
2023/09/20 03:42:56;;;;;;;0.80;0.80;;;17.50;99.90;;;17.96;77.83;100315.97;4909062;29;20650;-66
2023/09/20 03:45:23;;;;;;;1.27;1.17;;;17.50;99.90;;;17.93;78.28;100311.00;4911535;29;20661;-66
2023/09/20 03:47:56;;;;;;;0.90;0.90;;;17.50;99.90;;;17.93;78.16;100315.47;4914524;29;20658;-67
2023/09/20 03:50:24;;;;;;;0.70;0.70;;;17.40;99.90;;;17.92;77.99;100306.72;4911845;29;20649;-65
2023/09/20 03:52:52;;;;;;;0.93;0.93;;;17.50;99.90;;;17.90;78.09;100311.34;4914647;29;20641;-66
2023/09/20 03:55:20;;;;;;;1.57;1.13;;;17.40;99.90;;;17.89;77.93;100309.69;4913726;29;21093;-65
2023/09/20 03:57:48;;;;;;;0.70;0.70;;;17.40;99.90;;;17.91;77.68;100307.69;4915712;29;21541;-66
2023/09/20 04:00:28;;;;;;;0.60;0.60;;;17.50;99.90;;;17.90;77.91;100303.44;4914046;29;20676;-65
2023/09/20 04:02:57;;;;;;;1.40;1.27;;;17.50;99.90;;;17.92;77.11;100304.09;4908881;29;21002;-65
2023/09/20 04:05:24;;;;;;;1.43;0.87;;;17.50;99.90;;;17.92;77.44;100309.38;4912535;29;20752;-65
2023/09/20 04:08:11;;;;;;;0.70;0.70;;;17.50;99.90;;;17.90;77.46;100311.34;4917871;29;20623;-66
2023/09/20 04:10:39;;;;;;;0.70;0.70;;;17.50;99.90;;;17.87;77.52;100306.38;4912434;29;20752;-66
2023/09/20 04:13:07;;;;;;;0.80;0.80;;;17.40;99.90;;;17.91;77.50;100306.91;4914386;29;20756;-70
2023/09/20 04:15:34;;;;;;;1.23;1.23;;;17.50;99.90;;;17.91;76.97;100305.06;4913906;29;20654;-67
2023/09/20 04:18:08;;;;;;;0.90;0.90;;;17.50;99.90;;;17.92;77.04;100309.38;4913719;29;20657;-67
2023/09/20 04:20:35;;;;;;;0.90;0.90;;;17.50;99.90;;;17.91;77.19;100307.69;4915009;29;20670;-68
2023/09/20 04:23:03;;;;;;;0.77;0.77;;;17.50;99.90;;;17.91;77.01;100301.63;4913517;29;20748;-66
2023/09/20 04:25:30;;;;;;;0.80;0.80;;;17.50;99.90;;;17.91;77.18;100301.63;4914504;29;20700;-67
2023/09/20 04:27:57;;;;;;;0.83;0.83;;;17.50;99.90;;;17.89;77.30;100304.41;4906330;29;20652;-66
2023/09/20 04:30:24;;;;;;;0.77;0.77;;;17.50;99.90;;;17.89;77.67;100295.69;4906006;29;20657;-66
2023/09/20 04:32:51;;;;;;;1.27;1.17;;;17.50;99.90;;;17.88;77.43;100294.84;4904057;29;20658;-69
2023/09/20 04:35:19;;;;;;;0.70;0.70;;;17.40;99.90;;;17.86;77.39;100285.44;4908311;29;20669;-65
2023/09/20 04:37:46;;;;;;;1.20;1.10;;;17.40;99.90;;;17.83;77.94;100286.59;4910245;29;21239;-65
2023/09/20 04:40:13;;;;;;;0.70;0.70;;;17.40;99.90;;;17.79;78.35;100295.81;4912241;29;21004;-64
2023/09/20 04:42:41;;;;;;;0.83;0.70;;;17.30;99.90;;;17.78;78.36;100286.28;4914106;29;20677;-67
2023/09/20 04:45:12;;;;;;;0.93;0.93;;;17.30;99.90;;;17.78;78.52;100288.91;4913946;29;20661;-64
2023/09/20 04:47:39;;;;;;;0.90;0.90;;;17.30;99.90;;;17.72;78.82;100292.19;4914460;29;20646;-65
2023/09/20 04:50:07;;;;;;;2.70;1.30;;;17.30;99.90;;;17.71;79.27;100285.28;4913186;29;20669;-64
2023/09/20 04:52:34;;;;;;;1.23;1.10;;;17.30;99.90;;;17.68;79.24;100283.78;4913708;29;20653;-67
2023/09/20 04:55:01;;;;;;;1.23;1.17;;;17.20;99.90;;;17.67;79.36;100289.22;4912471;29;20726;-67
2023/09/20 04:57:29;;;;;;;1.30;1.20;;;17.20;99.90;;;17.70;79.31;100294.16;4912439;29;21091;-66
2023/09/20 04:59:56;;;;;;;0.87;0.70;;;17.30;99.90;;;17.71;79.10;100283.47;4913587;29;21581;-67
2023/09/20 05:02:23;;;;;;;0.73;0.73;;;17.20;99.90;;;17.71;78.92;100285.28;4907518;29;21249;-65
2023/09/20 05:04:50;;;;;;;0.70;0.70;;;17.30;99.90;;;17.73;79.13;100291.22;4909050;29;21455;-66
2023/09/20 05:07:18;;;;;;;0.93;0.93;;;17.30;99.90;;;17.71;79.15;100291.38;4906894;29;20634;-72
2023/09/20 05:09:50;;;;;;;1.30;1.20;;;17.30;99.90;;;17.71;79.21;100303.75;4909097;29;20646;-65
2023/09/20 05:12:17;;;;;;;2.37;1.10;;;17.30;99.90;;;17.68;79.42;100299.63;4909119;29;21045;-65
2023/09/20 05:14:45;;;;;;;0.80;0.80;;;17.30;99.90;;;17.64;79.69;100297.47;4912097;29;20739;-67
2023/09/20 05:17:13;;;;;;;1.80;1.23;;;17.20;99.90;;;17.64;79.92;100300.09;4911246;29;20749;-65
2023/09/20 05:19:41;;;;;;;1.00;0.97;;;17.20;99.90;;;17.64;80.21;100308.00;4911900;29;20660;-65
2023/09/20 05:22:08;;;;;;;2.00;0.90;;;17.20;99.90;;;17.68;80.05;100311.97;4921582;29;20737;-67
2023/09/20 05:24:35;;;;;;;0.93;0.93;;;17.30;99.90;;;17.70;79.99;100304.72;4913378;29;20682;-66
2023/09/20 05:27:02;;;;;;;5.87;1.20;;;17.30;99.90;;;17.71;80.22;100311.66;4911946;29;20741;-68
2023/09/20 05:29:29;;;;;;;0.90;0.90;;;17.20;99.90;;;17.84;79.71;100309.38;4913649;29;21557;-67
2023/09/20 05:31:56;;;;;;;3.27;1.40;;;17.30;99.90;;;17.92;79.41;100301.44;4912630;29;20650;-65
2023/09/20 05:34:23;;;;;;;1.27;1.20;;;17.50;99.90;;;17.98;78.88;100308.69;4912010;29;21122;-63
2023/09/20 05:36:52;;;;;;;0.90;0.90;;;17.60;99.90;;;18.00;78.77;100301.44;4912503;29;20630;-66
2023/09/20 05:39:19;;;;;;;0.93;0.93;;;17.50;99.90;;;18.00;78.83;100301.44;4912363;29;20669;-66
2023/09/20 05:41:46;;;;;;;0.80;0.80;;;17.60;99.90;;;17.99;78.90;100307.72;4913650;29;20672;-64
2023/09/20 05:44:13;;;;;;;1.00;1.00;;;17.50;99.90;;;18.00;78.88;100301.44;4910624;29;20689;-66
2023/09/20 05:46:40;;;;;;;0.80;0.80;;;17.60;99.90;;;18.20;78.94;100315.13;4913344;29;21199;-67
2023/09/20 05:49:09;;;;;;;1.17;1.00;;;17.70;99.90;;;18.48;77.29;100311.97;4910134;29;20642;-66
2023/09/20 05:51:37;;;;;;;0.70;0.70;;;17.90;99.90;;;18.76;76.24;100311.59;4913280;29;20726;-68
2023/09/20 05:54:05;;;;;;;0.87;0.87;;;18.20;99.90;;;19.12;74.85;100307.47;4912233;29;20634;-69
2023/09/20 05:56:32;;;;;;;0.90;0.90;;;18.50;99.90;;;19.35;73.23;100308.38;4913377;29;20653;-67
2023/09/20 05:59:01;;;;;;;0.90;0.90;;;18.80;99.90;;;19.41;73.06;100304.19;4912901;29;20662;-66
2023/09/20 06:01:30;;;;;;;4.43;1.10;;;18.90;99.90;;;19.62;72.80;100301.72;4912908;29;20673;-67
2023/09/20 06:03:58;;;;;;;1.20;1.10;;;19.00;99.90;;;20.06;71.01;100316.75;4912504;29;20629;-67
2023/09/20 06:06:26;;;;;;;0.90;0.90;;;19.40;99.90;;;20.58;68.00;100305.38;4912256;29;20758;-66
2023/09/20 06:08:53;;;;;;;0.77;0.77;;;19.90;99.90;;;20.56;67.71;100305.56;4913434;29;20630;-65
2023/09/20 06:11:20;;;;;;;1.47;1.20;;;20.00;99.90;;;20.36;68.31;100304.44;4917144;29;20715;-65
2023/09/20 06:13:49;;;;;;;2.00;1.03;;;19.90;99.90;;;20.50;68.90;100308.94;4911663;29;20669;-66
2023/09/20 06:16:17;;;;;;;1.00;1.00;;;19.90;99.90;;;20.97;66.92;100308.56;4910742;29;21113;-68
2023/09/20 06:18:45;;;;;;;1.00;1.00;;;20.40;99.90;;;21.28;64.76;100300.38;4924810;29;20649;-64
2023/09/20 06:21:32;;;;;;;1.20;1.10;;;20.70;99.90;;;21.07;64.84;100309.13;4906642;29;20666;-66
2023/09/20 06:23:59;;;;;;;1.10;1.10;;;20.60;99.90;;;20.85;65.95;100305.53;4906659;29;21052;-65
2023/09/20 06:26:26;;;;;;;0.80;0.80;;;20.50;99.90;;;20.55;67.39;100308.41;4906737;29;20669;-65
2023/09/20 06:28:53;;;;;;;1.83;1.30;;;20.10;99.90;;;20.25;68.31;100304.91;4905977;29;20736;-65
2023/09/20 06:31:20;;;;;;;0.77;0.77;;;19.90;99.90;;;20.11;69.05;100303.00;4906541;29;20661;-68
2023/09/20 06:33:48;;;;;;;1.00;1.00;;;19.70;99.90;;;20.01;69.51;100305.91;4912287;29;20628;-66
2023/09/20 06:36:22;;;;;;;1.17;1.07;;;19.60;99.90;;;19.90;70.07;100305.50;4909374;29;20720;-64
2023/09/20 06:38:49;;;;;;;1.00;1.00;;;19.50;99.90;;;19.87;70.55;100306.66;4910521;29;21026;-63
2023/09/20 06:41:17;;;;;;;0.80;0.80;;;19.40;99.90;;;20.14;71.25;100292.03;4910744;29;20701;-65
2023/09/20 06:43:44;;;;;;;1.07;0.97;;;19.60;99.90;;;20.74;68.65;100297.25;4907910;29;20678;-65
2023/09/20 06:46:12;;;;;;;2.90;1.20;;;20.10;99.90;;;21.79;65.72;100293.16;4912443;29;21482;-62
2023/09/20 06:48:39;;;;;;;0.90;0.90;;;21.00;99.90;;;22.98;60.03;100294.63;4899696;29;20697;-64
2023/09/20 06:51:06;;;;;;;0.90;0.90;;;22.20;99.90;;;23.38;58.10;100292.97;4914233;29;20650;-66
2023/09/20 06:53:33;;;;;;;5.80;0.90;;;22.80;99.90;;;23.70;57.41;100288.75;4914926;29;20671;-65
2023/09/20 06:56:00;;;;;;;0.80;0.80;;;23.10;99.90;;;23.88;56.50;100288.94;4913468;29;20725;-63
2023/09/20 06:58:28;;;;;;;1.87;1.10;;;23.40;99.90;;;23.97;57.15;100287.72;4915849;29;20625;-69
2023/09/20 07:00:56;;;;;;;0.90;0.80;;;23.40;99.90;;;24.37;56.21;100284.03;4914385;29;20685;-67
2023/09/20 07:03:23;;;;;;;0.80;0.80;;;23.80;99.90;;;24.03;55.55;100297.56;4911507;29;20637;-65
2023/09/20 07:05:51;;;;;;;1.97;1.20;;;23.60;99.90;;;23.41;56.92;100289.06;4914768;29;20733;-66
2023/09/20 07:08:21;;;;;;;1.10;1.10;;;23.10;99.90;;;22.92;58.84;100295.44;4910983;29;20733;-66
2023/09/20 07:10:50;;;;;;;1.10;1.10;;;22.60;99.90;;;22.22;60.58;100297.44;4912293;29;21219;-65
2023/09/20 07:13:18;;;;;;;0.80;0.80;;;22.00;99.90;;;22.03;61.52;100293.63;4913228;29;21226;-66
2023/09/20 07:15:46;;;;;;;0.90;0.90;;;21.70;99.90;;;21.86;62.03;100288.75;4911746;29;20649;-66
2023/09/20 07:18:13;;;;;;;0.83;0.83;;;21.50;99.90;;;21.76;62.58;100285.56;4913626;29;21384;-66
2023/09/20 07:20:42;;;;;;;2.93;1.10;;;21.40;99.90;;;21.56;63.35;100296.00;4910849;29;20678;-65
2023/09/20 07:23:13;;;;;;;1.23;1.13;;;21.20;99.90;;;21.43;63.74;100293.19;4911608;29;20721;-66
2023/09/20 07:25:41;;;;;;;0.77;0.77;;;21.10;99.90;;;21.36;64.33;100295.78;4911640;29;20657;-69
2023/09/20 07:28:09;;;;;;;1.13;0.83;;;21.00;99.90;;;21.34;64.63;100299.63;4910900;29;20709;-69
2023/09/20 07:30:45;;;;;;;1.03;1.00;;;20.90;99.90;;;21.39;64.69;100298.06;4903130;29;20685;-67
2023/09/20 07:33:19;;;;;;;1.03;1.00;;;21.00;99.90;;;21.39;64.33;100290.13;4913814;29;20637;-65
2023/09/20 07:35:47;;;;;;;0.60;0.60;;;21.00;99.90;;;21.56;64.45;100293.34;4912102;29;20692;-67
2023/09/20 07:38:25;;;;;;;1.17;1.07;;;21.10;99.90;;;21.91;63.38;100296.97;4904862;29;20625;-66
2023/09/20 07:41:13;;;;;;;0.80;0.80;;;21.40;99.90;;;22.74;60.60;100297.81;4906111;29;21251;-66
2023/09/20 07:43:44;;;;;;;0.80;0.80;;;22.10;99.90;;;23.77;58.12;100294.88;4912050;29;20629;-65
2023/09/20 07:46:13;;;;;;;1.40;1.30;;;23.10;99.90;;;24.65;55.28;100303.25;4907803;29;20669;-66
2023/09/20 07:48:50;;;;;;;1.07;1.07;;;24.20;99.90;;;25.56;52.61;100300.44;4925485;29;20681;-65
2023/09/20 07:51:25;;;;;;;0.80;0.80;;;25.20;99.90;;;25.85;51.19;100297.19;4910790;29;20713;-65
2023/09/20 07:53:55;;;;;;;1.53;1.10;;;25.60;99.90;;;26.58;49.62;100290.97;4925182;29;21504;-67
2023/09/20 07:56:24;;;;;;;1.63;1.20;;;26.50;99.60;;;27.43;47.35;100287.28;4908848;29;21341;-66
2023/09/20 07:58:53;;;;;;;1.13;1.07;;;27.40;98.00;;;28.13;45.61;100287.47;4908141;29;20721;-70
2023/09/20 08:01:22;;;;;;;1.53;1.43;;;28.20;95.70;;;28.69;44.30;100297.59;4913011;29;20685;-69
2023/09/20 08:03:50;;;;;;;1.27;1.23;;;28.70;94.30;;;29.26;42.42;100288.59;4909892;29;20630;-68
2023/09/20 08:06:21;;;;;;;1.13;1.13;;;29.50;92.50;;;29.05;43.43;100298.09;4911520;29;20650;-66
2023/09/20 08:08:48;;;;;;;2.53;1.93;;;29.20;92.20;;;28.89;44.01;100293.50;4906878;29;21195;-66
2023/09/20 08:11:16;;;;;;;3.27;2.93;;;28.90;92.40;;;30.04;42.60;100285.16;4922941;29;20681;-65
2023/09/20 08:13:50;;;;;;;1.93;1.83;;;29.80;91.60;;;31.20;39.00;100290.28;4921023;29;21451;-68
2023/09/20 08:16:18;;;;;;;1.20;1.20;;;31.20;87.50;;;30.15;40.82;100282.38;4907595;29;20665;-65
2023/09/20 08:19:11;;;;;;;1.60;1.20;;;30.50;86.20;;;29.36;42.34;100282.59;4906358;29;21005;-65
2023/09/20 08:21:39;;;;;;;1.00;1.00;;;29.50;88.60;;;28.74;43.43;100282.44;4912002;29;21093;-65
2023/09/20 09:00:31;;;;;;;0.80;0.80;;;28.90;91.80;;;31.65;39.07;100290.75;4912724;29;20642;-66
2023/09/20 09:03:03;;;;;;;0.90;0.90;;;31.10;86.90;;;32.51;37.02;100296.84;4908674;29;20730;-66
2023/09/20 09:05:31;;;;;;;1.10;1.10;;;32.20;82.00;;;33.13;36.15;100280.66;4911437;29;21481;-66
2023/09/20 09:08:01;;;;;;;0.90;0.90;;;32.80;79.00;;;34.25;34.46;100283.19;4910951;29;20682;-66
2023/09/20 09:10:29;;;;;;;1.00;1.00;;;33.90;76.10;;;35.20;32.61;100275.84;4926775;29;20653;-68
2023/09/20 09:12:56;;;;;;;1.67;1.30;;;35.00;72.10;;;36.43;31.27;100284.38;4912965;29;20729;-65
2023/09/20 09:15:26;;;;;;;1.27;1.17;;;36.20;68.40;;;36.18;31.16;100271.84;4912668;29;20657;-68
2023/09/20 09:17:54;;;;;;;1.07;1.07;;;36.20;66.00;;;34.76;32.54;100267.59;4913731;29;20712;-69
2023/09/20 09:20:22;;;;;;;1.53;1.43;;;35.00;66.10;;;33.38;34.32;100262.59;4912936;29;20634;-66
2023/09/20 09:22:49;;;;;;;1.07;1.07;;;33.50;68.20;;;33.20;34.89;100259.59;4923724;29;20670;-66
2023/09/20 09:25:25;;;;;;;0.80;0.80;;;33.00;69.80;;;33.48;35.01;100254.47;4910330;29;20654;-65
2023/09/20 09:27:53;;;;;;;1.40;1.30;;;33.00;69.50;;;32.75;35.66;100249.41;4911823;29;20645;-68
2023/09/20 09:30:21;;;;;;;1.00;1.00;;;32.40;70.30;;;31.84;37.54;100248.81;4913215;29;20633;-67
2023/09/20 09:32:50;;;;;;;1.10;1.10;;;31.60;72.10;;;30.65;38.83;100245.41;4910682;29;20725;-66
2023/09/20 09:35:19;;;;;;;2.13;0.90;;;30.50;73.00;;;29.70;40.94;100236.72;4913553;29;20661;-65
2023/09/20 09:38:01;;;;;;;0.87;0.87;;;29.50;75.20;;;29.02;42.62;100228.75;4913555;29;20622;-67
2023/09/20 09:40:28;;;;;;;0.90;0.90;;;28.80;77.50;;;28.69;43.34;100234.00;4912200;29;20705;-64
2023/09/20 09:43:11;;;;;;;3.70;1.03;;;28.30;79.40;;;27.91;44.58;100230.88;4912288;29;20765;-70
2023/09/20 09:45:38;;;;;;;0.90;0.90;;;27.70;80.20;;;27.36;45.94;100216.94;4904451;29;20708;-67
2023/09/20 09:48:06;;;;;;;2.20;1.00;;;27.00;82.30;;;26.92;46.88;100213.81;4908565;29;20665;-66
2023/09/20 09:50:38;;;;;;;0.83;0.80;;;26.60;83.70;;;26.55;48.28;100215.69;4912576;29;20696;-69
2023/09/20 09:53:08;;;;;;;0.77;0.77;;;26.20;85.90;;;26.47;48.20;100224.03;4911113;29;20647;-66
2023/09/20 09:55:38;;;;;;;0.80;0.80;;;26.00;86.70;;;26.34;48.68;100216.13;4911602;29;20690;-66
2023/09/20 09:58:08;;;;;;;0.90;0.90;;;25.90;88.30;;;26.29;48.96;100213.31;4913125;29;20626;-66
2023/09/20 10:00:39;;;;;;;1.03;0.97;;;25.70;88.80;;;26.39;49.13;100214.41;4910689;29;21199;-66
2023/09/20 10:03:30;;;;;;;1.20;1.10;;;25.80;89.70;;;26.50;49.76;100228.91;4928127;29;20770;-67
2023/09/20 10:06:27;;;;;;;1.33;1.27;;;25.90;90.20;;;26.51;48.89;100222.53;4927212;29;20760;-66
2023/09/20 10:08:55;;;;;;;0.90;0.90;;;26.00;90.00;;;26.48;49.11;100212.25;4910479;29;20642;-68
2023/09/20 10:11:24;;;;;;;0.87;0.87;;;26.00;90.20;;;26.21;49.57;100210.94;4911092;29;20725;-66
2023/09/20 10:13:53;;;;;;;1.00;1.00;;;25.70;90.50;;;26.21;49.98;100206.41;4909942;29;20642;-66
2023/09/20 10:16:20;;;;;;;0.97;0.97;;;25.70;90.90;;;26.31;49.76;100203.19;4912645;29;20709;-67
2023/09/20 10:18:53;;;;;;;1.53;1.23;;;25.80;91.30;;;26.55;49.04;100196.97;4911737;29;21093;-64
2023/09/20 10:21:30;;;;;;;1.23;1.20;;;26.10;90.70;;;26.99;48.21;100193.94;4913141;29;20772;-67
2023/09/20 10:24:00;;;;;;;1.13;1.13;;;26.50;90.30;;;27.34;47.20;100186.84;4913635;29;20649;-66
2023/09/20 10:26:29;;;;;;;1.07;0.90;;;26.80;89.90;;;27.25;47.40;100185.53;4916136;29;20652;-66
2023/09/20 10:29:26;;;;;;;1.00;1.00;;;26.70;89.50;;;27.00;48.29;100174.16;4924799;29;20968;-66
2023/09/20 10:32:13;;;;;;;2.10;0.70;;;26.50;90.30;;;26.74;47.74;100175.34;4910166;29;20626;-67
2023/09/20 10:35:19;;;;;;;0.63;0.63;;;26.30;90.20;;;26.43;48.64;100188.06;4924113;29;21278;-68
2023/09/20 10:38:08;;;;;;;0.87;0.87;;;26.00;90.40;;;26.17;49.25;100183.00;4916502;29;20648;-69
2023/09/20 10:40:45;;;;;;;0.90;0.90;;;25.70;90.80;;;25.84;50.20;100175.25;4914631;29;20646;-67
2023/09/20 10:43:15;;;;;;;2.33;1.20;;;25.40;91.30;;;25.63;51.21;100173.81;4916669;29;20745;-69
2023/09/20 10:45:51;;;;;;;0.80;0.80;;;25.10;91.90;;;25.50;51.04;100168.56;4914536;29;20741;-67
2023/09/20 10:48:22;;;;;;;0.80;0.60;;;25.00;92.20;;;25.37;51.65;100165.97;4914864;29;20628;-67
2023/09/20 10:50:57;;;;;;;1.00;1.00;;;24.90;92.40;;;25.29;51.89;100171.59;4912994;29;20673;-69
2023/09/20 10:53:45;;;;;;;1.00;1.00;;;24.80;92.90;;;25.20;52.61;100170.22;4926550;29;20630;-66
2023/09/20 10:56:53;;;;;;;0.70;0.70;;;24.70;93.10;;;25.14;51.95;100163.06;4915160;29;20653;-67
2023/09/20 10:59:26;;;;;;;0.87;0.87;;;24.60;93.10;;;25.09;51.98;100157.53;4907453;29;21164;-67
2023/09/20 11:01:58;;;;;;;0.70;0.70;;;24.50;93.30;;;25.15;52.42;100156.69;4915990;29;20697;-69